< < Back
Terminal Aerodrome Forecast


Current Version              Previous Versions:   1  2  3  4  5  6  7  8  9  

Terminal Aerodrome Forecast

360
FTUS42 KCHS 281739
TAFSAV
TAF
KSAV 281739Z 2818/2918 03010G15KT P6SM FEW025 BKN060
     FM282000 04010G15KT P6SM SCT035 BKN080
     FM290000 36007KT P6SM SCT030 BKN250
     FM290600 33010KT P6SM SCT015 OVC035
     FM291200 33011G19KT P6SM SCT015 BKN035=

Latest METAR

893
SAUS80 KWBC 290400 RRA
MTRSAV
METAR KSAV 290353Z 34010KT 7SM RA SCT015 BKN090 OVC110 21/19 A3003 RMK
AO2 SLP168 LAST AUGMENTED OBSERVATION UNTIL 1000Z P0014
T02110194


USA.gov is the U.S. government's official web portal to all federal, state and local government web resources and services.